createdAt,value
2023-06-19T00:00:14.107Z,142.83
2023-06-19T00:01:17.710Z,145.00
2023-06-19T00:02:20.457Z,146.33
2023-06-19T00:03:23.190Z,147.00
2023-06-19T00:04:27.742Z,147.83
2023-06-19T00:05:30.692Z,147.33
2023-06-19T00:06:33.416Z,146.67
2023-06-19T00:07:37.594Z,146.00
2023-06-19T00:08:42.522Z,146.00
2023-06-19T00:09:45.240Z,147.00
2023-06-19T00:10:49.434Z,147.00
2023-06-19T00:11:52.169Z,146.33
2023-06-19T00:12:54.886Z,146.17
2023-06-19T00:13:57.634Z,147.00
2023-06-19T00:15:00.514Z,146.67
2023-06-19T00:16:03.308Z,147.00
2023-06-19T00:17:06.949Z,146.33
2023-06-19T00:18:11.178Z,146.50
2023-06-19T00:19:14.230Z,146.17
2023-06-19T00:20:16.966Z,146.67
2023-06-19T00:21:19.688Z,147.00
2023-06-19T00:22:22.736Z,147.00
2023-06-19T00:23:25.461Z,147.00
2023-06-19T00:24:28.241Z,146.50
2023-06-19T00:25:31.028Z,146.17
2023-06-19T00:26:34.128Z,146.67
2023-06-19T00:27:36.865Z,146.00
2023-06-19T00:28:40.358Z,146.00
2023-06-19T00:29:43.084Z,146.00
2023-06-19T00:30:45.957Z,146.00
2023-06-19T00:31:50.306Z,145.00
2023-06-19T00:32:54.387Z,145.00
2023-06-19T00:33:58.082Z,145.00
2023-06-19T00:35:02.113Z,145.00
2023-06-19T00:36:10.957Z,145.33
2023-06-19T00:37:14.512Z,146.00
2023-06-19T00:38:17.352Z,146.83
2023-06-19T00:39:20.109Z,147.00
2023-06-19T00:40:29.257Z,147.00
2023-06-19T00:41:33.762Z,147.00
2023-06-19T00:42:36.497Z,147.00
2023-06-19T00:43:39.234Z,146.83
2023-06-19T00:44:41.958Z,146.00
2023-06-19T00:45:44.762Z,145.67
2023-06-19T00:46:47.933Z,144.83
2023-06-19T00:47:51.774Z,144.00
2023-06-19T00:48:54.723Z,143.67
2023-06-19T00:49:57.474Z,144.00
2023-06-19T00:51:01.131Z,143.17
2023-06-19T00:52:03.984Z,142.83
2023-06-19T00:53:08.873Z,142.33
2023-06-19T00:54:12.046Z,142.00
2023-06-19T00:55:17.157Z,142.00
2023-06-19T00:56:19.952Z,142.00
2023-06-19T00:57:23.325Z,142.00
2023-06-19T00:58:26.450Z,142.00
2023-06-19T00:59:30.690Z,142.00
2023-06-19T01:00:33.458Z,142.00
2023-06-19T01:01:36.281Z,142.00
2023-06-19T01:02:39.581Z,142.00
2023-06-19T01:03:42.717Z,142.00
2023-06-19T01:04:47.049Z,142.00
2023-06-19T01:05:52.890Z,142.00
2023-06-19T01:07:03.844Z,142.33
2023-06-19T01:08:12.100Z,143.00
2023-06-19T01:09:18.334Z,143.00
2023-06-19T01:10:29.445Z,143.83
2023-06-19T01:11:42.025Z,144.33
2023-06-19T01:12:58.094Z,145.00
2023-06-19T01:14:09.486Z,145.00
2023-06-19T01:15:13.801Z,145.00
2023-06-19T01:16:18.766Z,145.50
2023-06-19T01:17:22.950Z,146.00
2023-06-19T01:18:28.132Z,146.33
2023-06-19T01:19:31.782Z,147.00
2023-06-19T01:20:34.835Z,147.33
2023-06-19T01:21:38.214Z,148.00
2023-06-19T01:22:40.936Z,148.33
2023-06-19T01:23:44.691Z,149.00
2023-06-19T01:24:47.404Z,149.33
2023-06-19T01:25:50.163Z,150.00
2023-06-19T01:26:53.164Z,149.50
2023-06-19T01:27:57.781Z,149.00
2023-06-19T01:29:00.673Z,149.00
2023-06-19T01:30:05.343Z,149.00
2023-06-19T01:31:23.604Z,147.67
2023-06-19T01:32:57.855Z,146.67
2023-06-19T01:34:05.211Z,146.00
2023-06-19T01:35:10.448Z,145.17
2023-06-19T01:36:15.782Z,144.17
2023-06-19T01:37:19.014Z,144.00
2023-06-19T01:38:26.657Z,144.00
2023-06-19T01:39:31.458Z,143.17
2023-06-19T01:40:35.243Z,143.50
2023-06-19T01:41:40.840Z,143.50
2023-06-19T01:42:44.798Z,143.00
2023-06-19T01:43:48.581Z,143.00
2023-06-19T01:44:52.278Z,142.50
2023-06-19T01:45:55.122Z,142.00
2023-06-19T01:46:57.952Z,142.00
2023-06-19T01:48:01.160Z,142.00
2023-06-19T01:49:07.838Z,142.00
2023-06-19T01:50:12.375Z,142.00
2023-06-19T01:51:15.240Z,142.00
2023-06-19T01:52:17.998Z,142.00
2023-06-19T01:53:20.802Z,142.00
2023-06-19T01:54:23.573Z,142.33
2023-06-19T01:55:26.739Z,143.00
2023-06-19T01:56:29.575Z,143.00
2023-06-19T01:57:33.184Z,143.00
2023-06-19T01:58:35.937Z,142.33
2023-06-19T01:59:38.672Z,142.00
2023-06-19T02:00:41.539Z,142.00
2023-06-19T02:01:44.282Z,142.00
2023-06-19T02:02:47.186Z,142.00
2023-06-19T02:03:50.138Z,142.00
2023-06-19T02:04:52.941Z,142.00
2023-06-19T02:05:55.673Z,141.83
2023-06-19T02:06:58.428Z,141.00
2023-06-19T02:08:01.166Z,141.17
2023-06-19T02:09:03.911Z,142.00
2023-06-19T02:10:07.642Z,141.50
2023-06-19T02:11:10.357Z,141.00
2023-06-19T02:12:13.089Z,140.50
2023-06-19T02:13:15.826Z,140.00
2023-06-19T02:14:18.845Z,139.83
2023-06-19T02:15:23.508Z,138.67
2023-06-19T02:16:26.296Z,138.00
2023-06-19T02:17:29.163Z,138.00
2023-06-19T02:18:33.763Z,137.83
2023-06-19T02:19:36.532Z,137.00
2023-06-19T02:20:40.115Z,136.83
2023-06-19T02:21:42.828Z,136.00
2023-06-19T02:22:45.646Z,135.83
2023-06-19T02:23:48.374Z,135.00
2023-06-19T02:24:51.106Z,135.00
2023-06-19T02:25:53.925Z,135.00
2023-06-19T02:26:56.663Z,135.00
2023-06-19T02:28:01.427Z,134.00
2023-06-19T02:29:04.735Z,134.00
2023-06-19T02:30:07.984Z,134.00
2023-06-19T02:31:11.102Z,134.00
2023-06-19T02:32:14.461Z,134.00
2023-06-19T02:33:17.192Z,134.00
2023-06-19T02:34:19.934Z,134.00
2023-06-19T02:35:23.594Z,134.00
2023-06-19T02:36:27.085Z,134.00
2023-06-19T02:37:30.891Z,134.00
2023-06-19T02:38:33.600Z,134.00
2023-06-19T02:39:36.342Z,134.00
2023-06-19T02:40:39.572Z,134.00
2023-06-19T02:41:46.841Z,134.00
2023-06-19T02:42:49.611Z,134.00
2023-06-19T02:43:52.343Z,134.33
2023-06-19T02:44:55.109Z,135.00
2023-06-19T02:45:57.942Z,135.00
2023-06-19T02:47:00.738Z,134.67
2023-06-19T02:48:03.651Z,134.00
2023-06-19T02:49:08.924Z,134.50
2023-06-19T02:50:11.676Z,134.00
2023-06-19T02:51:14.476Z,134.00
2023-06-19T02:52:17.216Z,134.00
2023-06-19T02:53:19.945Z,134.17
2023-06-19T02:54:22.704Z,134.00
2023-06-19T02:55:25.425Z,136.00
2023-06-19T02:56:29.849Z,149.83
2023-06-19T02:57:32.610Z,158.50
2023-06-19T02:58:35.620Z,155.83
2023-06-19T02:59:38.361Z,152.83
2023-06-19T03:00:41.153Z,151.50
2023-06-19T03:01:44.009Z,150.33
2023-06-19T03:02:49.925Z,149.67
2023-06-19T03:03:53.524Z,149.00
2023-06-19T03:04:56.278Z,148.33
2023-06-19T03:06:02.214Z,147.83
2023-06-19T03:07:05.381Z,146.17
2023-06-19T03:08:08.208Z,145.00
2023-06-19T03:09:13.347Z,144.00
2023-06-19T03:10:16.164Z,143.33
2023-06-19T03:11:19.214Z,142.17
2023-06-19T03:12:21.991Z,142.00
2023-06-19T03:13:24.788Z,141.17
2023-06-19T03:14:27.548Z,140.50
2023-06-19T03:15:30.276Z,140.50
2023-06-19T03:16:33.038Z,141.00
2023-06-19T03:17:35.845Z,140.17
2023-06-19T03:18:40.037Z,138.50
2023-06-19T03:19:42.859Z,138.00
2023-06-19T03:20:45.584Z,138.00
2023-06-19T03:21:48.321Z,137.83
2023-06-19T03:22:51.545Z,137.00
2023-06-19T03:23:54.583Z,137.00
2023-06-19T03:24:59.823Z,137.17
2023-06-19T03:26:02.549Z,137.50
2023-06-19T03:27:05.705Z,137.33
2023-06-19T03:28:08.447Z,137.00
2023-06-19T03:29:11.775Z,137.00
2023-06-19T03:30:27.489Z,137.00
2023-06-19T03:31:30.220Z,137.00
2023-06-19T03:32:34.676Z,136.50
2023-06-19T03:33:38.224Z,136.00
2023-06-19T03:34:41.055Z,136.33
2023-06-19T03:35:45.405Z,136.33
2023-06-19T03:37:04.980Z,136.83
2023-06-19T03:38:08.308Z,137.00
2023-06-19T03:39:11.662Z,137.00
2023-06-19T03:40:15.433Z,137.50
2023-06-19T03:41:20.894Z,138.83
2023-06-19T03:42:24.018Z,139.00
2023-06-19T03:43:26.938Z,139.00
2023-06-19T03:44:29.769Z,139.00
2023-06-19T03:45:32.642Z,139.00
2023-06-19T03:46:35.494Z,139.17
2023-06-19T03:47:38.698Z,139.83
2023-06-19T03:48:42.510Z,140.00
2023-06-19T03:49:45.307Z,140.00
2023-06-19T03:50:48.079Z,140.00
2023-06-19T03:51:50.896Z,140.00
2023-06-19T03:52:53.678Z,140.00
2023-06-19T03:53:56.728Z,139.50
2023-06-19T03:54:59.531Z,139.00
2023-06-19T03:56:02.415Z,139.00
2023-06-19T03:57:05.514Z,138.50
2023-06-19T03:58:08.246Z,138.00
2023-06-19T03:59:10.983Z,138.00
2023-06-19T04:00:16.222Z,138.00
2023-06-19T04:01:19.453Z,138.00
2023-06-19T04:02:22.263Z,138.00
2023-06-19T04:03:25.024Z,138.00
2023-06-19T04:04:27.804Z,138.00
2023-06-19T04:05:32.045Z,138.00
2023-06-19T04:06:35.053Z,138.00
2023-06-19T04:07:37.923Z,138.00
2023-06-19T04:08:42.181Z,138.00
2023-06-19T04:09:48.460Z,138.00
2023-06-19T04:10:51.350Z,138.00
2023-06-19T04:11:54.117Z,138.00
2023-06-19T04:12:57.584Z,138.00
2023-06-19T04:14:00.360Z,138.00
2023-06-19T04:15:03.097Z,137.33
2023-06-19T04:16:05.895Z,137.00
2023-06-19T04:17:08.688Z,137.00
2023-06-19T04:18:11.796Z,137.83
2023-06-19T04:19:14.518Z,138.00
2023-06-19T04:20:17.299Z,138.33
2023-06-19T04:21:22.933Z,139.17
2023-06-19T04:22:25.684Z,139.83
2023-06-19T04:23:28.400Z,140.00
2023-06-19T04:24:31.199Z,140.00
2023-06-19T04:25:33.968Z,140.67
2023-06-19T04:26:37.950Z,141.33
2023-06-19T04:27:41.081Z,142.33
2023-06-19T04:28:43.809Z,143.17
2023-06-19T04:29:46.565Z,144.17
2023-06-19T04:30:49.289Z,145.00
2023-06-19T04:31:52.015Z,146.00
2023-06-19T04:32:54.934Z,146.00
2023-06-19T04:33:57.875Z,146.17
2023-06-19T04:35:00.630Z,146.00
2023-06-19T04:36:03.401Z,146.00
2023-06-19T04:37:06.434Z,146.00
2023-06-19T04:38:10.243Z,147.33
2023-06-19T04:39:13.002Z,147.50
2023-06-19T04:40:15.724Z,147.00
2023-06-19T04:41:18.740Z,146.83
2023-06-19T04:42:21.871Z,146.00
2023-06-19T04:43:26.008Z,146.00
2023-06-19T04:44:31.148Z,146.00
2023-06-19T04:45:33.938Z,145.50
2023-06-19T04:46:38.959Z,145.00
2023-06-19T04:47:52.533Z,145.17
2023-06-19T04:48:56.719Z,145.00
2023-06-19T04:49:59.478Z,145.00
2023-06-19T04:51:02.786Z,145.00
2023-06-19T04:52:05.650Z,144.83
2023-06-19T04:53:08.389Z,144.00
2023-06-19T04:54:11.128Z,144.00
2023-06-19T04:55:13.865Z,143.17
2023-06-19T04:56:17.004Z,141.83
2023-06-19T04:57:19.740Z,140.67
2023-06-19T04:58:23.322Z,140.00
2023-06-19T04:59:26.088Z,138.83
2023-06-19T05:00:28.836Z,139.00
2023-06-19T05:01:31.967Z,139.00
2023-06-19T05:02:35.211Z,138.00
2023-06-19T05:03:38.089Z,138.00
2023-06-19T05:04:44.102Z,138.00
2023-06-19T05:05:47.057Z,138.00
2023-06-19T05:06:52.825Z,137.33
2023-06-19T05:07:55.575Z,134.83
2023-06-19T05:08:58.595Z,131.00
2023-06-19T05:10:01.341Z,125.67
2023-06-19T05:11:04.102Z,121.67
2023-06-19T05:12:06.971Z,117.33
2023-06-19T05:13:09.695Z,115.33
2023-06-19T05:14:12.577Z,113.17
2023-06-19T05:15:15.322Z,111.67
2023-06-19T05:16:20.957Z,108.33
2023-06-19T05:17:23.797Z,105.83
2023-06-19T05:18:26.660Z,105.50
2023-06-19T05:19:29.383Z,103.83
2023-06-19T05:20:32.117Z,102.33
2023-06-19T05:21:34.850Z,98.83
2023-06-19T05:22:38.297Z,95.83
2023-06-19T05:23:41.131Z,88.83
2023-06-19T05:24:43.935Z,89.33
2023-06-19T05:25:46.690Z,88.50
2023-06-19T05:26:49.419Z,86.17
2023-06-19T05:27:52.142Z,84.00
2023-06-19T05:28:54.849Z,82.50
2023-06-19T05:29:57.579Z,83.00
2023-06-19T05:31:00.325Z,83.00
2023-06-19T05:32:03.381Z,82.83
2023-06-19T05:33:06.133Z,82.17
2023-06-19T05:34:09.165Z,81.00
2023-06-19T05:35:14.524Z,80.83
2023-06-19T05:36:19.199Z,79.17
2023-06-19T05:37:23.275Z,77.83
2023-06-19T05:38:27.104Z,74.50
2023-06-19T05:39:29.859Z,68.83
2023-06-19T05:40:32.585Z,68.50
2023-06-19T05:41:35.536Z,67.00
2023-06-19T05:42:38.429Z,67.00
2023-06-19T05:43:41.147Z,67.67
2023-06-19T05:44:43.868Z,68.33
2023-06-19T05:45:46.624Z,69.00
2023-06-19T05:46:49.379Z,70.00
2023-06-19T05:47:52.150Z,70.33
2023-06-19T05:48:55.821Z,71.00
2023-06-19T05:49:59.095Z,71.67
2023-06-19T05:51:01.823Z,73.00
2023-06-19T05:52:05.026Z,75.67
2023-06-19T05:53:07.813Z,77.50
2023-06-19T05:54:10.923Z,79.50
2023-06-19T05:55:13.783Z,81.00
2023-06-19T05:56:17.275Z,81.00
2023-06-19T05:57:22.192Z,81.83
2023-06-19T05:58:26.787Z,82.00
2023-06-19T05:59:29.580Z,82.00
2023-06-19T06:00:33.238Z,82.00
2023-06-19T06:01:36.017Z,82.00
2023-06-19T06:02:38.803Z,82.00
2023-06-19T06:03:41.569Z,81.83
2023-06-19T06:04:44.517Z,81.00
2023-06-19T06:05:50.018Z,80.67
2023-06-19T06:06:52.757Z,80.00
2023-06-19T06:07:56.426Z,80.00
2023-06-19T06:08:59.150Z,80.00
2023-06-19T06:10:01.889Z,80.00
2023-06-19T06:11:04.689Z,80.83
2023-06-19T06:12:07.896Z,81.50
2023-06-19T06:13:10.874Z,82.00
2023-06-19T06:14:13.781Z,82.00
2023-06-19T06:15:17.064Z,82.83
2023-06-19T06:16:19.837Z,83.00
2023-06-19T06:17:22.618Z,83.00
2023-06-19T06:18:25.342Z,83.00
2023-06-19T06:19:28.080Z,82.50
2023-06-19T06:20:30.816Z,83.00
2023-06-19T06:21:33.556Z,83.00
2023-06-19T06:22:36.296Z,83.67
2023-06-19T06:23:39.027Z,84.00
2023-06-19T06:24:41.828Z,85.00
2023-06-19T06:25:46.785Z,86.50
2023-06-19T06:26:49.511Z,89.83
2023-06-19T06:27:52.543Z,90.00
2023-06-19T06:28:56.369Z,89.83
2023-06-19T06:29:59.142Z,89.33
2023-06-19T06:31:02.014Z,89.00
2023-06-19T06:32:07.055Z,89.00
2023-06-19T06:33:09.810Z,89.00
2023-06-19T06:34:12.536Z,89.00
2023-06-19T06:35:18.269Z,89.00
2023-06-19T06:36:33.808Z,89.00
2023-06-19T06:37:38.142Z,89.00
2023-06-19T06:38:40.877Z,89.00
2023-06-19T06:39:43.613Z,89.00
2023-06-19T06:40:46.357Z,89.00
2023-06-19T06:41:49.085Z,90.00
2023-06-19T06:42:51.814Z,90.00
2023-06-19T06:43:56.521Z,90.00
2023-06-19T06:44:59.298Z,90.83
2023-06-19T06:46:02.076Z,93.50
2023-06-19T06:47:04.867Z,94.50
2023-06-19T06:48:08.346Z,95.00
2023-06-19T06:49:12.351Z,95.00
2023-06-19T06:50:15.073Z,95.67
2023-06-19T06:51:17.873Z,97.00
2023-06-19T06:52:20.619Z,97.33
2023-06-19T06:53:23.333Z,98.67
2023-06-19T06:54:26.187Z,100.17
2023-06-19T06:55:28.937Z,101.17
2023-06-19T06:56:31.711Z,101.50
2023-06-19T06:57:34.468Z,87.00
2023-06-19T06:58:37.354Z,67.00
2023-06-19T06:59:40.088Z,63.83
2023-06-19T07:00:42.811Z,63.00
2023-06-19T07:01:45.821Z,63.83
2023-06-19T07:02:51.516Z,65.50
2023-06-19T07:03:55.617Z,65.33
2023-06-19T07:04:58.446Z,68.00
2023-06-19T07:06:01.432Z,68.67
2023-06-19T07:07:06.299Z,66.33
2023-06-19T07:08:09.065Z,60.83
2023-06-19T07:09:12.707Z,53.33
2023-06-19T07:10:15.484Z,50.00
2023-06-19T07:11:18.222Z,51.33
2023-06-19T07:12:21.181Z,54.33
2023-06-19T07:13:24.331Z,55.00
2023-06-19T07:14:27.056Z,54.67
2023-06-19T07:15:29.779Z,53.33
2023-06-19T07:16:32.540Z,52.67
2023-06-19T07:17:35.316Z,52.00
2023-06-19T07:18:39.862Z,52.83
2023-06-19T07:19:42.693Z,53.83
2023-06-19T07:20:45.441Z,54.00
2023-06-19T07:21:48.361Z,51.17
2023-06-19T07:22:53.695Z,46.33
2023-06-19T07:23:57.218Z,42.83
2023-06-19T07:24:59.998Z,42.00
2023-06-19T07:26:02.723Z,42.50
2023-06-19T07:27:05.792Z,43.83
2023-06-19T07:28:08.562Z,45.00
2023-06-19T07:29:11.292Z,47.33
2023-06-19T07:30:16.538Z,48.50
2023-06-19T07:31:20.037Z,48.17
2023-06-19T07:32:23.371Z,48.83
2023-06-19T07:33:26.300Z,49.00
2023-06-19T07:34:29.345Z,48.50
2023-06-19T07:35:32.094Z,48.50
2023-06-19T07:36:34.829Z,48.17
2023-06-19T07:37:37.557Z,49.00
2023-06-19T07:38:40.274Z,50.17
2023-06-19T07:39:44.887Z,54.67
2023-06-19T07:40:47.687Z,59.83
2023-06-19T07:41:50.407Z,60.33
2023-06-19T07:42:53.168Z,63.17
2023-06-19T07:43:55.888Z,69.67
2023-06-19T07:44:58.629Z,73.67
2023-06-19T07:46:01.544Z,75.00
2023-06-19T07:47:04.412Z,76.17
2023-06-19T07:48:07.261Z,76.33
2023-06-19T07:49:10.042Z,75.33
2023-06-19T07:50:12.770Z,77.00
2023-06-19T07:51:15.509Z,77.17
2023-06-19T07:52:18.244Z,78.33
2023-06-19T07:53:21.198Z,78.00
2023-06-19T07:54:23.912Z,77.83
2023-06-19T07:55:26.627Z,76.00
2023-06-19T07:56:29.701Z,73.33
2023-06-19T07:57:32.443Z,72.00
2023-06-19T07:58:35.182Z,72.00
2023-06-19T07:59:37.929Z,76.83
2023-06-19T08:00:40.651Z,95.17
2023-06-19T08:01:43.583Z,93.67
2023-06-19T08:02:46.456Z,88.67
2023-06-19T08:03:49.453Z,86.00
2023-06-19T08:04:52.422Z,84.83
2023-06-19T08:05:55.162Z,101.00
2023-06-19T08:06:57.874Z,130.33
2023-06-19T08:08:00.997Z,132.33
2023-06-19T08:09:04.979Z,131.67
2023-06-19T08:10:27.339Z,124.50
2023-06-19T08:11:30.771Z,117.50
2023-06-19T08:12:33.689Z,114.67
2023-06-19T08:13:36.414Z,113.33
2023-06-19T08:14:39.785Z,113.00
2023-06-19T08:15:42.555Z,109.00
2023-06-19T08:16:45.343Z,101.67
2023-06-19T08:17:49.177Z,99.33
2023-06-19T08:18:51.927Z,99.00
2023-06-19T08:19:54.649Z,100.17
2023-06-19T08:20:57.378Z,102.67
2023-06-19T08:22:00.184Z,105.33
2023-06-19T08:23:05.079Z,108.17
2023-06-19T08:24:09.220Z,109.67
2023-06-19T08:25:12.245Z,110.00
2023-06-19T08:26:15.006Z,109.33
2023-06-19T08:27:17.848Z,107.33
2023-06-19T08:28:20.593Z,103.00
2023-06-19T08:29:24.076Z,100.67
2023-06-19T08:30:27.649Z,100.17
2023-06-19T08:31:30.823Z,98.50
2023-06-19T08:32:34.338Z,98.50
2023-06-19T08:33:37.094Z,92.33
2023-06-19T08:34:39.828Z,77.50
2023-06-19T08:35:42.591Z,74.00
2023-06-19T08:36:45.334Z,78.00
2023-06-19T08:37:48.094Z,80.83
2023-06-19T08:38:51.588Z,82.67
2023-06-19T08:39:54.334Z,83.00
2023-06-19T08:40:57.091Z,81.83
2023-06-19T08:41:59.837Z,79.17
2023-06-19T08:43:02.641Z,78.67
2023-06-19T08:44:06.313Z,78.50
2023-06-19T08:45:09.945Z,75.67
2023-06-19T08:46:19.488Z,73.00
2023-06-19T08:47:31.053Z,72.67
2023-06-19T08:48:37.184Z,71.83
2023-06-19T08:49:40.598Z,73.00
2023-06-19T08:50:43.326Z,73.83
2023-06-19T08:51:46.119Z,74.00
2023-06-19T08:52:48.936Z,74.00
2023-06-19T08:53:56.711Z,73.33
2023-06-19T08:54:59.471Z,69.83
2023-06-19T08:56:03.273Z,66.67
2023-06-19T08:57:07.376Z,66.17
2023-06-19T08:58:11.934Z,67.00
2023-06-19T08:59:18.905Z,67.83
2023-06-19T09:00:34.001Z,68.00
2023-06-19T09:01:37.421Z,69.00
2023-06-19T09:02:57.705Z,69.83
2023-06-19T09:04:14.059Z,70.00
2023-06-19T09:05:19.543Z,70.00
2023-06-19T09:06:22.418Z,70.00
2023-06-19T09:07:25.298Z,70.00
2023-06-19T09:08:28.124Z,70.00
2023-06-19T09:09:34.128Z,66.33
2023-06-19T09:10:36.947Z,56.50
2023-06-19T09:11:44.345Z,52.00
2023-06-19T09:13:05.036Z,53.67
2023-06-19T09:14:07.815Z,54.83
2023-06-19T09:15:16.967Z,55.00
2023-06-19T09:16:19.912Z,54.33
2023-06-19T09:17:22.938Z,54.17
2023-06-19T09:18:31.777Z,55.00
2023-06-19T09:19:38.385Z,55.17
2023-06-19T09:20:45.941Z,56.00
2023-06-19T09:21:48.806Z,56.00
2023-06-19T09:22:56.608Z,56.17
2023-06-19T09:24:07.286Z,57.00
2023-06-19T09:25:11.521Z,57.00
2023-06-19T09:26:18.964Z,56.17
2023-06-19T09:27:21.886Z,54.33
2023-06-19T09:28:26.858Z,52.00
2023-06-19T09:29:30.084Z,51.67
2023-06-19T09:30:32.797Z,52.00
2023-06-19T09:31:35.607Z,52.00
2023-06-19T09:32:38.376Z,52.00
2023-06-19T09:33:41.870Z,52.00
2023-06-19T09:34:44.873Z,52.00
2023-06-19T09:35:50.391Z,52.00
2023-06-19T09:36:53.100Z,52.00
2023-06-19T09:37:57.031Z,52.00
2023-06-19T09:39:01.090Z,52.00
2023-06-19T09:40:11.731Z,52.00
2023-06-19T09:41:17.595Z,53.00
2023-06-19T09:42:30.564Z,53.00
2023-06-19T09:43:45.035Z,52.83
2023-06-19T09:44:52.541Z,50.33
2023-06-19T09:45:57.373Z,49.33
2023-06-19T09:47:10.471Z,49.00
2023-06-19T09:48:18.511Z,49.00
2023-06-19T09:49:35.445Z,49.33
2023-06-19T09:50:40.645Z,50.67
2023-06-19T09:51:44.641Z,51.67
2023-06-19T09:52:47.394Z,52.00
2023-06-19T09:53:52.073Z,51.67
2023-06-19T09:54:56.739Z,49.67
2023-06-19T09:55:59.465Z,49.00
2023-06-19T09:57:04.311Z,49.00
2023-06-19T09:58:07.824Z,49.00
2023-06-19T09:59:11.290Z,49.00
2023-06-19T10:00:23.607Z,49.00
2023-06-19T10:01:29.576Z,49.17
2023-06-19T10:02:32.765Z,50.00
2023-06-19T10:03:37.572Z,50.00
2023-06-19T10:04:47.955Z,50.00
2023-06-19T10:05:59.084Z,50.00
2023-06-19T10:07:02.246Z,50.33
2023-06-19T10:08:06.099Z,50.50
2023-06-19T10:09:11.093Z,50.83
2023-06-19T10:10:28.566Z,49.83
2023-06-19T10:11:49.358Z,50.00
2023-06-19T10:12:52.397Z,51.00
2023-06-19T10:13:55.544Z,51.00
2023-06-19T10:14:58.281Z,51.00
2023-06-19T10:16:01.637Z,50.83
2023-06-19T10:17:10.335Z,50.00
2023-06-19T10:18:17.777Z,51.00
2023-06-19T10:19:23.115Z,51.00
2023-06-19T10:20:34.176Z,51.00
2023-06-19T10:21:50.213Z,50.17
2023-06-19T10:23:14.739Z,51.00
2023-06-19T10:24:20.854Z,51.67
2023-06-19T10:25:25.488Z,52.00
2023-06-19T10:26:35.728Z,51.33
2023-06-19T10:27:39.557Z,51.17
2023-06-19T10:28:47.849Z,51.83
2023-06-19T10:30:00.559Z,51.00
2023-06-19T10:31:12.838Z,51.00
2023-06-19T10:32:15.584Z,50.83
2023-06-19T10:33:18.315Z,49.67
2023-06-19T10:34:21.073Z,50.00
2023-06-19T10:35:25.562Z,50.00
2023-06-19T10:36:28.583Z,50.00
2023-06-19T10:37:34.990Z,50.00
2023-06-19T10:38:37.933Z,49.83
2023-06-19T10:39:40.666Z,49.00
2023-06-19T10:40:45.613Z,49.00
2023-06-19T10:41:48.331Z,49.00
2023-06-19T10:42:51.050Z,50.00
2023-06-19T10:44:06.981Z,51.83
2023-06-19T10:45:13.559Z,53.50
2023-06-19T10:46:16.388Z,53.33
2023-06-19T10:47:19.348Z,54.00
2023-06-19T10:48:24.643Z,53.83
2023-06-19T10:49:27.366Z,53.00
2023-06-19T10:50:30.716Z,53.00
2023-06-19T10:51:38.381Z,53.00
2023-06-19T10:52:45.565Z,53.00
2023-06-19T10:53:48.292Z,53.00
2023-06-19T10:54:58.362Z,53.00
2023-06-19T10:56:02.836Z,53.00
2023-06-19T10:57:06.377Z,53.00
2023-06-19T10:58:09.103Z,53.00
2023-06-19T10:59:15.420Z,53.00
2023-06-19T11:00:26.431Z,52.50
2023-06-19T11:01:40.659Z,52.00
2023-06-19T11:02:44.957Z,52.00
2023-06-19T11:03:48.212Z,52.00
2023-06-19T11:04:53.773Z,52.00
2023-06-19T11:05:56.587Z,52.00
2023-06-19T11:07:06.579Z,52.00
2023-06-19T11:08:09.322Z,52.00
2023-06-19T11:09:13.320Z,52.67
2023-06-19T11:10:21.985Z,53.33
2023-06-19T11:11:24.855Z,54.17
2023-06-19T11:12:27.601Z,55.00
2023-06-19T11:13:30.350Z,55.00
2023-06-19T11:14:33.425Z,54.83
2023-06-19T11:15:36.272Z,54.00
2023-06-19T11:16:41.440Z,54.00
2023-06-19T11:17:44.383Z,54.00
2023-06-19T11:18:47.150Z,54.00
2023-06-19T11:19:53.351Z,54.00
2023-06-19T11:20:56.092Z,54.00
2023-06-19T11:21:58.916Z,54.00
2023-06-19T11:23:02.462Z,54.00
2023-06-19T11:24:13.940Z,53.33
2023-06-19T11:25:16.734Z,53.00
2023-06-19T11:26:19.856Z,54.33
2023-06-19T11:27:29.850Z,56.50
2023-06-19T11:28:33.288Z,58.67
2023-06-19T11:29:36.540Z,59.83
2023-06-19T11:30:39.310Z,60.83
2023-06-19T11:31:42.052Z,61.67
2023-06-19T11:32:46.084Z,62.00
2023-06-19T11:33:59.800Z,62.17
2023-06-19T11:35:08.834Z,62.00
2023-06-19T11:36:11.698Z,62.67
2023-06-19T11:37:15.887Z,66.50
2023-06-19T11:38:19.691Z,67.00
2023-06-19T11:39:23.496Z,66.50
2023-06-19T11:40:27.195Z,65.83
2023-06-19T11:41:30.160Z,63.33
2023-06-19T11:42:34.204Z,62.00
2023-06-19T11:43:37.008Z,62.00
2023-06-19T11:45:01.148Z,63.00
2023-06-19T11:46:05.713Z,67.17
2023-06-19T11:47:11.758Z,67.17
2023-06-19T11:48:14.524Z,67.00
2023-06-19T11:49:21.492Z,67.00
2023-06-19T11:50:29.101Z,66.83
2023-06-19T11:51:32.049Z,66.00
2023-06-19T11:52:35.174Z,66.00
2023-06-19T11:53:38.489Z,65.00
2023-06-19T11:54:41.222Z,65.00
2023-06-19T11:55:44.995Z,64.00
2023-06-19T11:56:50.672Z,64.67
2023-06-19T11:57:53.388Z,66.83
2023-06-19T11:58:56.384Z,67.00
2023-06-19T11:59:59.112Z,67.00
2023-06-19T12:01:01.845Z,67.00
2023-06-19T12:02:05.030Z,67.00
2023-06-19T12:03:07.939Z,66.33
2023-06-19T12:04:11.066Z,66.67
2023-06-19T12:05:14.227Z,66.33
2023-06-19T12:06:19.050Z,65.50
2023-06-19T12:07:21.815Z,65.00
2023-06-19T12:08:24.595Z,65.00
2023-06-19T12:09:27.334Z,64.17
2023-06-19T12:10:31.104Z,64.00
2023-06-19T12:11:33.908Z,64.00
2023-06-19T12:12:38.763Z,64.00
2023-06-19T12:13:42.425Z,64.00
2023-06-19T12:14:45.144Z,63.50
2023-06-19T12:15:47.868Z,64.00
2023-06-19T12:16:50.636Z,64.17
2023-06-19T12:17:53.748Z,65.00
2023-06-19T12:18:56.512Z,66.00
2023-06-19T12:19:59.264Z,66.83
2023-06-19T12:21:02.284Z,67.00
2023-06-19T12:22:05.532Z,66.33
2023-06-19T12:23:08.264Z,66.00
2023-06-19T12:24:11.202Z,66.50
2023-06-19T12:25:13.986Z,66.00
2023-06-19T12:26:16.715Z,66.83
2023-06-19T12:27:19.465Z,67.00
2023-06-19T12:28:22.490Z,67.67
2023-06-19T12:29:25.280Z,69.83
2023-06-19T12:30:28.173Z,77.67
2023-06-19T12:31:32.453Z,83.50
2023-06-19T12:32:35.546Z,87.00
2023-06-19T12:33:43.963Z,96.67
2023-06-19T12:34:47.617Z,105.00
2023-06-19T12:35:50.801Z,107.67
2023-06-19T12:36:53.533Z,109.00
2023-06-19T12:37:56.429Z,115.50
2023-06-19T12:39:01.047Z,118.83
2023-06-19T12:40:09.386Z,115.67
2023-06-19T12:41:12.797Z,117.50
2023-06-19T12:42:15.557Z,117.33
2023-06-19T12:43:18.316Z,117.33
2023-06-19T12:44:23.017Z,120.50
2023-06-19T12:45:26.136Z,124.83
2023-06-19T12:46:28.965Z,123.83
2023-06-19T12:47:31.803Z,132.17
2023-06-19T12:48:34.870Z,141.17
2023-06-19T12:49:37.598Z,159.17
2023-06-19T12:50:40.358Z,169.33
2023-06-19T12:51:43.106Z,186.33
2023-06-19T12:52:45.856Z,185.50
2023-06-19T12:53:48.598Z,172.67
2023-06-19T12:54:51.825Z,221.50
2023-06-19T12:56:01.574Z,224.00
2023-06-19T12:57:06.041Z,191.00
2023-06-19T12:58:10.402Z,262.33
2023-06-19T12:59:13.160Z,290.33
2023-06-19T13:00:16.122Z,283.00
2023-06-19T13:01:19.299Z,294.17
2023-06-19T13:02:22.709Z,240.17
2023-06-19T13:03:25.849Z,218.83
2023-06-19T13:04:28.688Z,197.83
2023-06-19T13:05:31.432Z,184.00
2023-06-19T13:06:34.251Z,173.00
2023-06-19T13:07:37.255Z,163.33
2023-06-19T13:08:40.008Z,158.00
2023-06-19T13:09:42.773Z,148.50
2023-06-19T13:10:45.507Z,137.83
2023-06-19T13:11:48.277Z,133.50
2023-06-19T13:12:51.060Z,125.83
2023-06-19T13:13:53.819Z,122.50
2023-06-19T13:14:56.582Z,123.33
2023-06-19T13:15:59.367Z,120.83
2023-06-19T13:17:02.678Z,116.67
2023-06-19T13:18:05.591Z,113.67
2023-06-19T13:19:12.103Z,110.83
2023-06-19T13:20:16.353Z,107.67
2023-06-19T13:21:19.265Z,109.17
2023-06-19T13:22:24.588Z,109.83
2023-06-19T13:23:27.865Z,108.33
2023-06-19T13:24:30.582Z,109.67
2023-06-19T13:25:34.035Z,106.50
2023-06-19T13:26:36.785Z,100.17
2023-06-19T13:27:39.517Z,98.00
2023-06-19T13:28:42.526Z,97.33
2023-06-19T13:29:45.260Z,98.17
2023-06-19T13:30:47.971Z,98.00
2023-06-19T13:31:50.698Z,97.83
2023-06-19T13:32:53.490Z,96.17